sensor_id;sensor_type;location;lat;lon;timestamp;temperature;humidity
56184;DHT22;42086;53.170;6.980;2022-10-18T00:01:13;14.30;99.90
56184;DHT22;42086;53.170;6.980;2022-10-18T00:03:39;14.30;99.90
56184;DHT22;42086;53.170;6.980;2022-10-18T00:06:05;14.30;99.90
56184;DHT22;42086;53.170;6.980;2022-10-18T00:08:32;14.30;99.90
56184;DHT22;42086;53.170;6.980;2022-10-18T00:10:57;14.30;99.90
56184;DHT22;42086;53.170;6.980;2022-10-18T00:13:23;14.30;99.90
56184;DHT22;42086;53.170;6.980;2022-10-18T00:15:58;14.20;99.90
56184;DHT22;42086;53.170;6.980;2022-10-18T00:18:24;14.20;99.90
56184;DHT22;42086;53.170;6.980;2022-10-18T00:21:01;14.30;99.90
56184;DHT22;42086;53.170;6.980;2022-10-18T00:23:29;14.20;99.90
56184;DHT22;42086;53.170;6.980;2022-10-18T00:26:07;14.20;99.90
56184;DHT22;42086;53.170;6.980;2022-10-18T00:28:34;14.00;99.90
56184;DHT22;42086;53.170;6.980;2022-10-18T00:31:24;14.00;99.90
56184;DHT22;42086;53.170;6.980;2022-10-18T00:33:52;14.00;99.90
56184;DHT22;42086;53.170;6.980;2022-10-18T00:36:19;13.90;99.90
56184;DHT22;42086;53.170;6.980;2022-10-18T00:38:45;14.00;99.90
56184;DHT22;42086;53.170;6.980;2022-10-18T00:41:14;13.90;99.90
56184;DHT22;42086;53.170;6.980;2022-10-18T00:43:59;13.90;99.90
56184;DHT22;42086;53.170;6.980;2022-10-18T00:46:27;13.90;99.90
56184;DHT22;42086;53.170;6.980;2022-10-18T00:48:55;14.00;99.90
56184;DHT22;42086;53.170;6.980;2022-10-18T00:51:24;13.90;99.90
56184;DHT22;42086;53.170;6.980;2022-10-18T00:53:51;13.90;99.90
56184;DHT22;42086;53.170;6.980;2022-10-18T00:56:17;13.90;99.90
56184;DHT22;42086;53.170;6.980;2022-10-18T00:58:43;14.00;99.90
56184;DHT22;42086;53.170;6.980;2022-10-18T01:01:10;14.00;99.90
56184;DHT22;42086;53.170;6.980;2022-10-18T01:03:36;14.00;99.90
56184;DHT22;42086;53.170;6.980;2022-10-18T01:06:02;14.00;99.90
56184;DHT22;42086;53.170;6.980;2022-10-18T01:17:03;14.00;99.90
56184;DHT22;42086;53.170;6.980;2022-10-18T01:22:16;13.90;99.90
56184;DHT22;42086;53.170;6.980;2022-10-18T01:27:51;13.80;99.90
56184;DHT22;42086;53.170;6.980;2022-10-18T01:32:51;13.70;99.90
56184;DHT22;42086;53.170;6.980;2022-10-18T01:35:30;13.60;99.90
56184;DHT22;42086;53.170;6.980;2022-10-18T01:38:01;13.50;99.90
56184;DHT22;42086;53.170;6.980;2022-10-18T01:40:29;13.40;99.90
56184;DHT22;42086;53.170;6.980;2022-10-18T01:42:56;13.30;99.90
56184;DHT22;42086;53.170;6.980;2022-10-18T01:45:23;13.30;99.90
56184;DHT22;42086;53.170;6.980;2022-10-18T01:47:50;13.30;99.90
56184;DHT22;42086;53.170;6.980;2022-10-18T01:50:30;13.30;99.90
56184;DHT22;42086;53.170;6.980;2022-10-18T01:52:57;13.30;99.90
56184;DHT22;42086;53.170;6.980;2022-10-18T01:55:44;13.30;99.90
56184;DHT22;42086;53.170;6.980;2022-10-18T01:58:21;13.30;99.90
56184;DHT22;42086;53.170;6.980;2022-10-18T02:00:59;13.30;99.90
56184;DHT22;42086;53.170;6.980;2022-10-18T02:03:29;13.20;99.90
56184;DHT22;42086;53.170;6.980;2022-10-18T02:06:18;13.20;99.90
56184;DHT22;42086;53.170;6.980;2022-10-18T02:09:08;13.10;99.90
56184;DHT22;42086;53.170;6.980;2022-10-18T02:11:37;13.20;99.90
56184;DHT22;42086;53.170;6.980;2022-10-18T02:14:11;13.20;99.90
56184;DHT22;42086;53.170;6.980;2022-10-18T02:16:47;13.20;99.90
56184;DHT22;42086;53.170;6.980;2022-10-18T02:19:19;13.20;99.90
56184;DHT22;42086;53.170;6.980;2022-10-18T02:21:49;13.20;99.90
56184;DHT22;42086;53.170;6.980;2022-10-18T02:24:17;13.10;99.90
56184;DHT22;42086;53.170;6.980;2022-10-18T02:26:43;13.10;99.90
56184;DHT22;42086;53.170;6.980;2022-10-18T02:29:10;13.20;99.90
56184;DHT22;42086;53.170;6.980;2022-10-18T02:31:44;13.10;99.90
56184;DHT22;42086;53.170;6.980;2022-10-18T02:34:23;13.10;99.90
56184;DHT22;42086;53.170;6.980;2022-10-18T02:36:58;13.10;99.90
56184;DHT22;42086;53.170;6.980;2022-10-18T02:39:28;13.10;99.90
56184;DHT22;42086;53.170;6.980;2022-10-18T02:41:56;13.10;99.90
56184;DHT22;42086;53.170;6.980;2022-10-18T02:44:22;13.10;99.90
56184;DHT22;42086;53.170;6.980;2022-10-18T02:46:48;13.00;99.90
56184;DHT22;42086;53.170;6.980;2022-10-18T02:49:13;13.00;99.90
56184;DHT22;42086;53.170;6.980;2022-10-18T02:51:39;13.00;99.90
56184;DHT22;42086;53.170;6.980;2022-10-18T02:54:05;12.90;99.90
56184;DHT22;42086;53.170;6.980;2022-10-18T02:56:33;12.90;99.90
56184;DHT22;42086;53.170;6.980;2022-10-18T02:58:59;12.90;99.90
56184;DHT22;42086;53.170;6.980;2022-10-18T03:01:24;12.90;99.90
56184;DHT22;42086;53.170;6.980;2022-10-18T03:03:50;12.90;99.90
56184;DHT22;42086;53.170;6.980;2022-10-18T03:06:16;12.90;99.90
56184;DHT22;42086;53.170;6.980;2022-10-18T03:08:42;12.90;99.90
56184;DHT22;42086;53.170;6.980;2022-10-18T03:11:07;13.00;99.90
56184;DHT22;42086;53.170;6.980;2022-10-18T03:13:33;12.90;99.90
56184;DHT22;42086;53.170;6.980;2022-10-18T03:15:59;13.00;99.90
56184;DHT22;42086;53.170;6.980;2022-10-18T03:18:25;12.90;99.90
56184;DHT22;42086;53.170;6.980;2022-10-18T03:20:51;12.90;99.90
56184;DHT22;42086;53.170;6.980;2022-10-18T03:23:17;13.00;99.90
56184;DHT22;42086;53.170;6.980;2022-10-18T03:25:43;12.90;99.90
56184;DHT22;42086;53.170;6.980;2022-10-18T03:28:08;12.90;99.90
56184;DHT22;42086;53.170;6.980;2022-10-18T03:30:34;12.90;99.90
56184;DHT22;42086;53.170;6.980;2022-10-18T03:33:00;13.00;99.90
56184;DHT22;42086;53.170;6.980;2022-10-18T03:35:26;13.00;99.90
56184;DHT22;42086;53.170;6.980;2022-10-18T03:37:51;13.10;99.90
56184;DHT22;42086;53.170;6.980;2022-10-18T03:40:17;13.10;99.90
56184;DHT22;42086;53.170;6.980;2022-10-18T03:42:43;13.20;99.90
56184;DHT22;42086;53.170;6.980;2022-10-18T03:45:09;13.20;99.90
56184;DHT22;42086;53.170;6.980;2022-10-18T03:47:34;13.20;99.90
56184;DHT22;42086;53.170;6.980;2022-10-18T03:50:00;13.20;99.90
56184;DHT22;42086;53.170;6.980;2022-10-18T03:52:26;13.20;99.90
56184;DHT22;42086;53.170;6.980;2022-10-18T03:54:51;13.30;99.90
56184;DHT22;42086;53.170;6.980;2022-10-18T03:57:17;13.30;99.90
56184;DHT22;42086;53.170;6.980;2022-10-18T03:59:43;13.30;99.90
56184;DHT22;42086;53.170;6.980;2022-10-18T04:02:09;13.30;99.90
56184;DHT22;42086;53.170;6.980;2022-10-18T04:04:34;13.30;99.90
56184;DHT22;42086;53.170;6.980;2022-10-18T04:07:00;13.30;99.90
56184;DHT22;42086;53.170;6.980;2022-10-18T04:09:25;13.20;99.90
56184;DHT22;42086;53.170;6.980;2022-10-18T04:11:51;13.20;99.90
56184;DHT22;42086;53.170;6.980;2022-10-18T04:14:17;13.10;99.90
56184;DHT22;42086;53.170;6.980;2022-10-18T04:16:45;13.20;99.90
56184;DHT22;42086;53.170;6.980;2022-10-18T04:19:11;13.20;99.90
56184;DHT22;42086;53.170;6.980;2022-10-18T04:21:37;13.10;99.90
56184;DHT22;42086;53.170;6.980;2022-10-18T04:24:03;13.10;99.90
56184;DHT22;42086;53.170;6.980;2022-10-18T04:26:28;13.20;99.90
56184;DHT22;42086;53.170;6.980;2022-10-18T04:28:54;13.10;99.90
56184;DHT22;42086;53.170;6.980;2022-10-18T04:31:20;13.10;99.90
56184;DHT22;42086;53.170;6.980;2022-10-18T04:33:45;13.10;99.90
56184;DHT22;42086;53.170;6.980;2022-10-18T04:36:11;13.10;99.90
56184;DHT22;42086;53.170;6.980;2022-10-18T04:38:37;13.00;99.90
56184;DHT22;42086;53.170;6.980;2022-10-18T04:41:03;12.90;99.90
56184;DHT22;42086;53.170;6.980;2022-10-18T04:43:28;12.90;99.90
56184;DHT22;42086;53.170;6.980;2022-10-18T04:45:54;13.00;99.90
56184;DHT22;42086;53.170;6.980;2022-10-18T04:48:20;12.90;99.90
56184;DHT22;42086;53.170;6.980;2022-10-18T04:50:49;13.00;99.90
56184;DHT22;42086;53.170;6.980;2022-10-18T04:53:16;12.80;99.90
56184;DHT22;42086;53.170;6.980;2022-10-18T04:55:47;12.90;99.90
56184;DHT22;42086;53.170;6.980;2022-10-18T04:58:13;12.90;99.90
56184;DHT22;42086;53.170;6.980;2022-10-18T05:00:39;12.90;99.90
56184;DHT22;42086;53.170;6.980;2022-10-18T05:03:06;12.70;99.90
56184;DHT22;42086;53.170;6.980;2022-10-18T05:05:32;12.70;99.90
56184;DHT22;42086;53.170;6.980;2022-10-18T05:07:57;12.80;99.90
56184;DHT22;42086;53.170;6.980;2022-10-18T05:10:23;12.90;99.90
56184;DHT22;42086;53.170;6.980;2022-10-18T05:12:49;12.90;99.90
56184;DHT22;42086;53.170;6.980;2022-10-18T05:15:14;12.90;99.90
56184;DHT22;42086;53.170;6.980;2022-10-18T05:17:40;12.80;99.90
56184;DHT22;42086;53.170;6.980;2022-10-18T05:20:06;13.10;99.90
56184;DHT22;42086;53.170;6.980;2022-10-18T05:22:32;12.90;99.90
56184;DHT22;42086;53.170;6.980;2022-10-18T05:24:58;12.80;99.90
56184;DHT22;42086;53.170;6.980;2022-10-18T05:27:24;12.80;99.90
56184;DHT22;42086;53.170;6.980;2022-10-18T05:29:49;12.90;99.90
56184;DHT22;42086;53.170;6.980;2022-10-18T05:32:15;12.90;99.90
56184;DHT22;42086;53.170;6.980;2022-10-18T05:34:41;13.00;99.90
56184;DHT22;42086;53.170;6.980;2022-10-18T05:37:06;12.80;99.90
56184;DHT22;42086;53.170;6.980;2022-10-18T05:39:32;12.80;99.90
56184;DHT22;42086;53.170;6.980;2022-10-18T05:41:58;12.90;99.90
56184;DHT22;42086;53.170;6.980;2022-10-18T05:44:24;13.00;99.90
56184;DHT22;42086;53.170;6.980;2022-10-18T05:46:50;12.90;99.90
56184;DHT22;42086;53.170;6.980;2022-10-18T05:49:15;12.90;99.90
56184;DHT22;42086;53.170;6.980;2022-10-18T05:51:41;12.90;99.90
56184;DHT22;42086;53.170;6.980;2022-10-18T05:54:07;12.90;99.90
56184;DHT22;42086;53.170;6.980;2022-10-18T05:56:33;12.90;99.90
56184;DHT22;42086;53.170;6.980;2022-10-18T05:58:59;12.80;99.90
56184;DHT22;42086;53.170;6.980;2022-10-18T06:01:25;12.90;99.90
56184;DHT22;42086;53.170;6.980;2022-10-18T06:03:51;13.00;99.90
56184;DHT22;42086;53.170;6.980;2022-10-18T06:06:16;12.90;99.90
56184;DHT22;42086;53.170;6.980;2022-10-18T06:08:42;12.90;99.90
56184;DHT22;42086;53.170;6.980;2022-10-18T06:11:11;12.80;99.90
56184;DHT22;42086;53.170;6.980;2022-10-18T06:13:47;12.70;99.90
56184;DHT22;42086;53.170;6.980;2022-10-18T06:16:16;12.70;99.90
56184;DHT22;42086;53.170;6.980;2022-10-18T06:18:45;12.80;99.90
56184;DHT22;42086;53.170;6.980;2022-10-18T06:21:11;12.80;99.90
56184;DHT22;42086;53.170;6.980;2022-10-18T06:23:37;12.80;99.90
56184;DHT22;42086;53.170;6.980;2022-10-18T06:26:05;12.70;99.90
56184;DHT22;42086;53.170;6.980;2022-10-18T06:28:33;12.70;99.90
56184;DHT22;42086;53.170;6.980;2022-10-18T06:30:59;12.60;99.90
56184;DHT22;42086;53.170;6.980;2022-10-18T06:33:24;12.60;99.90
56184;DHT22;42086;53.170;6.980;2022-10-18T06:35:58;12.70;99.90
56184;DHT22;42086;53.170;6.980;2022-10-18T06:38:24;12.50;99.90
56184;DHT22;42086;53.170;6.980;2022-10-18T06:40:50;12.60;99.90
56184;DHT22;42086;53.170;6.980;2022-10-18T06:43:16;12.50;99.90
56184;DHT22;42086;53.170;6.980;2022-10-18T06:45:42;12.60;99.90
56184;DHT22;42086;53.170;6.980;2022-10-18T06:48:07;12.50;99.90
56184;DHT22;42086;53.170;6.980;2022-10-18T06:50:33;12.60;99.90
56184;DHT22;42086;53.170;6.980;2022-10-18T06:52:59;12.50;99.90
56184;DHT22;42086;53.170;6.980;2022-10-18T06:55:25;12.60;99.90
56184;DHT22;42086;53.170;6.980;2022-10-18T06:57:52;12.50;99.90
56184;DHT22;42086;53.170;6.980;2022-10-18T07:00:17;12.50;99.90
56184;DHT22;42086;53.170;6.980;2022-10-18T07:02:43;12.60;99.90
56184;DHT22;42086;53.170;6.980;2022-10-18T07:05:09;12.50;99.90
56184;DHT22;42086;53.170;6.980;2022-10-18T07:07:36;12.60;99.90
56184;DHT22;42086;53.170;6.980;2022-10-18T07:10:02;12.70;99.90
56184;DHT22;42086;53.170;6.980;2022-10-18T07:12:27;12.60;99.90
56184;DHT22;42086;53.170;6.980;2022-10-18T07:14:53;12.60;99.90
56184;DHT22;42086;53.170;6.980;2022-10-18T07:17:19;12.70;99.90
56184;DHT22;42086;53.170;6.980;2022-10-18T07:19:45;12.60;99.90
56184;DHT22;42086;53.170;6.980;2022-10-18T07:22:11;12.60;99.90
56184;DHT22;42086;53.170;6.980;2022-10-18T07:24:36;12.60;99.90
56184;DHT22;42086;53.170;6.980;2022-10-18T07:27:02;12.60;99.90
56184;DHT22;42086;53.170;6.980;2022-10-18T07:29:28;12.80;99.90
56184;DHT22;42086;53.170;6.980;2022-10-18T07:31:54;12.70;99.90
56184;DHT22;42086;53.170;6.980;2022-10-18T07:34:19;12.90;99.90
56184;DHT22;42086;53.170;6.980;2022-10-18T07:36:45;12.80;99.90
56184;DHT22;42086;53.170;6.980;2022-10-18T07:39:11;12.70;99.90
56184;DHT22;42086;53.170;6.980;2022-10-18T07:41:36;12.90;99.90
56184;DHT22;42086;53.170;6.980;2022-10-18T07:44:03;12.80;99.90
56184;DHT22;42086;53.170;6.980;2022-10-18T07:46:28;13.00;99.90
56184;DHT22;42086;53.170;6.980;2022-10-18T07:48:54;12.90;99.90
56184;DHT22;42086;53.170;6.980;2022-10-18T07:51:21;12.90;99.90
56184;DHT22;42086;53.170;6.980;2022-10-18T07:53:47;13.00;99.90
56184;DHT22;42086;53.170;6.980;2022-10-18T07:56:15;13.20;99.90
56184;DHT22;42086;53.170;6.980;2022-10-18T07:58:42;13.20;99.90
56184;DHT22;42086;53.170;6.980;2022-10-18T08:01:08;13.20;99.90
56184;DHT22;42086;53.170;6.980;2022-10-18T08:03:35;13.10;99.90
56184;DHT22;42086;53.170;6.980;2022-10-18T08:06:02;13.30;99.90
56184;DHT22;42086;53.170;6.980;2022-10-18T08:08:28;13.20;99.90
56184;DHT22;42086;53.170;6.980;2022-10-18T08:10:54;13.20;99.90
56184;DHT22;42086;53.170;6.980;2022-10-18T08:13:20;13.20;99.90
56184;DHT22;42086;53.170;6.980;2022-10-18T08:15:46;13.10;99.90
56184;DHT22;42086;53.170;6.980;2022-10-18T08:18:12;13.30;99.90
56184;DHT22;42086;53.170;6.980;2022-10-18T08:20:42;13.30;99.90
56184;DHT22;42086;53.170;6.980;2022-10-18T08:23:09;13.10;99.90
56184;DHT22;42086;53.170;6.980;2022-10-18T08:25:34;13.30;99.90
56184;DHT22;42086;53.170;6.980;2022-10-18T08:28:00;13.30;99.90
56184;DHT22;42086;53.170;6.980;2022-10-18T08:30:26;13.40;99.90
56184;DHT22;42086;53.170;6.980;2022-10-18T08:32:52;13.40;99.90
56184;DHT22;42086;53.170;6.980;2022-10-18T08:35:18;13.50;99.90
56184;DHT22;42086;53.170;6.980;2022-10-18T08:37:43;13.70;99.90
56184;DHT22;42086;53.170;6.980;2022-10-18T08:40:12;13.80;99.90
56184;DHT22;42086;53.170;6.980;2022-10-18T08:45:13;14.10;99.90
56184;DHT22;42086;53.170;6.980;2022-10-18T08:47:42;14.10;99.90
56184;DHT22;42086;53.170;6.980;2022-10-18T08:55:45;14.50;99.90
56184;DHT22;42086;53.170;6.980;2022-10-18T08:58:22;14.60;99.90
56184;DHT22;42086;53.170;6.980;2022-10-18T09:09:35;14.90;99.90
56184;DHT22;42086;53.170;6.980;2022-10-18T09:14:59;15.20;99.90
56184;DHT22;42086;53.170;6.980;2022-10-18T09:20:44;15.40;99.90
56184;DHT22;42086;53.170;6.980;2022-10-18T09:23:20;15.60;99.90
56184;DHT22;42086;53.170;6.980;2022-10-18T09:26:16;15.60;99.90
56184;DHT22;42086;53.170;6.980;2022-10-18T09:28:49;15.60;99.90
56184;DHT22;42086;53.170;6.980;2022-10-18T09:31:30;15.80;99.90
56184;DHT22;42086;53.170;6.980;2022-10-18T09:34:18;15.70;99.90
56184;DHT22;42086;53.170;6.980;2022-10-18T09:36:50;15.80;99.90
56184;DHT22;42086;53.170;6.980;2022-10-18T09:39:21;15.90;99.90
56184;DHT22;42086;53.170;6.980;2022-10-18T09:41:55;15.90;99.90
56184;DHT22;42086;53.170;6.980;2022-10-18T09:44:24;16.00;99.90
56184;DHT22;42086;53.170;6.980;2022-10-18T09:47:26;16.00;99.90
56184;DHT22;42086;53.170;6.980;2022-10-18T09:49:59;16.00;99.90
56184;DHT22;42086;53.170;6.980;2022-10-18T09:52:33;16.30;99.90
56184;DHT22;42086;53.170;6.980;2022-10-18T09:55:12;16.20;99.90
56184;DHT22;42086;53.170;6.980;2022-10-18T09:57:47;16.40;99.90
56184;DHT22;42086;53.170;6.980;2022-10-18T10:00:20;16.40;99.90
56184;DHT22;42086;53.170;6.980;2022-10-18T10:02:47;16.30;99.90
56184;DHT22;42086;53.170;6.980;2022-10-18T10:05:14;16.50;99.90
56184;DHT22;42086;53.170;6.980;2022-10-18T10:07:45;16.40;99.90
56184;DHT22;42086;53.170;6.980;2022-10-18T10:10:22;16.50;99.90
56184;DHT22;42086;53.170;6.980;2022-10-18T10:13:02;16.60;99.90
56184;DHT22;42086;53.170;6.980;2022-10-18T10:15:28;16.60;99.90
56184;DHT22;42086;53.170;6.980;2022-10-18T10:18:00;16.80;99.90
56184;DHT22;42086;53.170;6.980;2022-10-18T10:20:42;16.80;99.90
56184;DHT22;42086;53.170;6.980;2022-10-18T10:23:30;16.80;99.90
56184;DHT22;42086;53.170;6.980;2022-10-18T10:26:00;16.80;99.90
56184;DHT22;42086;53.170;6.980;2022-10-18T10:28:35;16.90;99.90
56184;DHT22;42086;53.170;6.980;2022-10-18T10:31:30;17.10;99.90
56184;DHT22;42086;53.170;6.980;2022-10-18T10:34:02;16.90;99.90
56184;DHT22;42086;53.170;6.980;2022-10-18T10:36:29;17.00;99.90
56184;DHT22;42086;53.170;6.980;2022-10-18T10:39:08;17.10;99.90
56184;DHT22;42086;53.170;6.980;2022-10-18T10:41:37;17.00;99.90
56184;DHT22;42086;53.170;6.980;2022-10-18T10:44:13;17.10;99.90
56184;DHT22;42086;53.170;6.980;2022-10-18T10:46:40;17.20;99.90
56184;DHT22;42086;53.170;6.980;2022-10-18T10:49:12;17.20;99.90
56184;DHT22;42086;53.170;6.980;2022-10-18T10:51:39;17.20;99.90
56184;DHT22;42086;53.170;6.980;2022-10-18T10:56:57;17.60;99.90
56184;DHT22;42086;53.170;6.980;2022-10-18T10:59:28;17.90;99.90
56184;DHT22;42086;53.170;6.980;2022-10-18T11:04:40;18.00;99.90
56184;DHT22;42086;53.170;6.980;2022-10-18T11:07:32;17.90;99.90
56184;DHT22;42086;53.170;6.980;2022-10-18T11:12:47;18.20;99.90
56184;DHT22;42086;53.170;6.980;2022-10-18T11:15:28;18.30;99.90
56184;DHT22;42086;53.170;6.980;2022-10-18T11:21:17;18.80;99.90
56184;DHT22;42086;53.170;6.980;2022-10-18T11:23:45;18.90;99.90
56184;DHT22;42086;53.170;6.980;2022-10-18T11:37:26;19.30;99.90
56184;DHT22;42086;53.170;6.980;2022-10-18T11:59:37;19.40;99.90
56184;DHT22;42086;53.170;6.980;2022-10-18T12:04:58;19.50;99.90
56184;DHT22;42086;53.170;6.980;2022-10-18T12:07:24;19.60;99.90
56184;DHT22;42086;53.170;6.980;2022-10-18T12:09:53;20.00;99.90
56184;DHT22;42086;53.170;6.980;2022-10-18T12:12:30;20.50;99.90
56184;DHT22;42086;53.170;6.980;2022-10-18T12:15:22;21.00;99.90
56184;DHT22;42086;53.170;6.980;2022-10-18T12:18:00;21.40;99.90
56184;DHT22;42086;53.170;6.980;2022-10-18T12:20:55;21.20;99.90
56184;DHT22;42086;53.170;6.980;2022-10-18T12:23:35;20.80;99.90
56184;DHT22;42086;53.170;6.980;2022-10-18T12:26:05;21.00;99.90
56184;DHT22;42086;53.170;6.980;2022-10-18T12:33:49;20.30;99.90
56184;DHT22;42086;53.170;6.980;2022-10-18T12:36:43;20.80;99.90
56184;DHT22;42086;53.170;6.980;2022-10-18T12:39:16;20.80;99.90
56184;DHT22;42086;53.170;6.980;2022-10-18T12:41:45;21.30;99.90
56184;DHT22;42086;53.170;6.980;2022-10-18T12:44:18;21.80;99.90
56184;DHT22;42086;53.170;6.980;2022-10-18T12:46:48;21.90;99.90
56184;DHT22;42086;53.170;6.980;2022-10-18T12:49:23;21.90;99.90
56184;DHT22;42086;53.170;6.980;2022-10-18T12:52:04;22.30;99.90
56184;DHT22;42086;53.170;6.980;2022-10-18T12:54:33;22.60;99.90
56184;DHT22;42086;53.170;6.980;2022-10-18T12:57:01;22.50;99.90
56184;DHT22;42086;53.170;6.980;2022-10-18T13:09:39;23.10;99.90
56184;DHT22;42086;53.170;6.980;2022-10-18T13:14:58;21.80;99.90
56184;DHT22;42086;53.170;6.980;2022-10-18T13:17:49;21.50;99.90
56184;DHT22;42086;53.170;6.980;2022-10-18T13:27:53;22.70;99.90
56184;DHT22;42086;53.170;6.980;2022-10-18T13:35:59;23.40;97.90
56184;DHT22;42086;53.170;6.980;2022-10-18T13:38:37;23.00;99.90
56184;DHT22;42086;53.170;6.980;2022-10-18T13:41:18;23.80;99.90
56184;DHT22;42086;53.170;6.980;2022-10-18T13:46:12;23.80;98.80
56184;DHT22;42086;53.170;6.980;2022-10-18T14:00:07;23.70;98.10
56184;DHT22;42086;53.170;6.980;2022-10-18T14:05:41;23.80;99.90
56184;DHT22;42086;53.170;6.980;2022-10-18T14:13:54;24.90;97.60
56184;DHT22;42086;53.170;6.980;2022-10-18T14:19:00;25.30;94.80
56184;DHT22;42086;53.170;6.980;2022-10-18T14:21:33;26.30;94.70
56184;DHT22;42086;53.170;6.980;2022-10-18T14:24:01;26.10;91.50
56184;DHT22;42086;53.170;6.980;2022-10-18T14:26:27;25.50;93.10
56184;DHT22;42086;53.170;6.980;2022-10-18T14:29:14;25.40;90.60
56184;DHT22;42086;53.170;6.980;2022-10-18T14:31:41;25.20;89.30
56184;DHT22;42086;53.170;6.980;2022-10-18T14:34:13;25.20;90.80
56184;DHT22;42086;53.170;6.980;2022-10-18T14:36:40;25.40;82.20
56184;DHT22;42086;53.170;6.980;2022-10-18T14:39:18;25.10;89.70
56184;DHT22;42086;53.170;6.980;2022-10-18T14:41:56;25.30;89.30
56184;DHT22;42086;53.170;6.980;2022-10-18T14:44:27;25.80;86.30
56184;DHT22;42086;53.170;6.980;2022-10-18T14:47:15;25.30;87.50
56184;DHT22;42086;53.170;6.980;2022-10-18T14:49:43;25.10;86.70
56184;DHT22;42086;53.170;6.980;2022-10-18T14:52:46;25.20;90.30
56184;DHT22;42086;53.170;6.980;2022-10-18T14:55:06;25.50;90.40
56184;DHT22;42086;53.170;6.980;2022-10-18T14:57:37;25.80;89.60
56184;DHT22;42086;53.170;6.980;2022-10-18T15:00:07;24.90;88.30
56184;DHT22;42086;53.170;6.980;2022-10-18T15:02:35;24.80;88.60
56184;DHT22;42086;53.170;6.980;2022-10-18T15:05:08;24.50;90.00
56184;DHT22;42086;53.170;6.980;2022-10-18T15:07:34;24.30;90.00
56184;DHT22;42086;53.170;6.980;2022-10-18T15:10:02;23.80;90.20
56184;DHT22;42086;53.170;6.980;2022-10-18T15:12:30;23.40;90.90
56184;DHT22;42086;53.170;6.980;2022-10-18T15:14:59;22.60;92.70
56184;DHT22;42086;53.170;6.980;2022-10-18T15:17:30;22.10;95.00
56184;DHT22;42086;53.170;6.980;2022-10-18T15:19:59;21.80;97.10
56184;DHT22;42086;53.170;6.980;2022-10-18T15:22:28;21.20;98.70
56184;DHT22;42086;53.170;6.980;2022-10-18T15:25:14;20.70;99.90
56184;DHT22;42086;53.170;6.980;2022-10-18T15:27:46;20.10;99.90
56184;DHT22;42086;53.170;6.980;2022-10-18T15:32:52;19.30;99.90
56184;DHT22;42086;53.170;6.980;2022-10-18T15:35:29;19.00;99.90
56184;DHT22;42086;53.170;6.980;2022-10-18T15:37:57;18.60;99.90
56184;DHT22;42086;53.170;6.980;2022-10-18T15:42:58;18.30;99.90
56184;DHT22;42086;53.170;6.980;2022-10-18T15:55:52;17.50;99.90
56184;DHT22;42086;53.170;6.980;2022-10-18T16:01:16;17.30;99.90
56184;DHT22;42086;53.170;6.980;2022-10-18T16:03:43;17.10;99.90
56184;DHT22;42086;53.170;6.980;2022-10-18T16:06:11;16.90;99.90
56184;DHT22;42086;53.170;6.980;2022-10-18T16:08:39;16.70;99.90
56184;DHT22;42086;53.170;6.980;2022-10-18T16:11:07;16.50;99.90
56184;DHT22;42086;53.170;6.980;2022-10-18T16:13:33;16.40;99.90
56184;DHT22;42086;53.170;6.980;2022-10-18T16:15:59;16.30;99.90
56184;DHT22;42086;53.170;6.980;2022-10-18T16:18:25;16.10;99.90
56184;DHT22;42086;53.170;6.980;2022-10-18T16:20:51;16.10;99.90
56184;DHT22;42086;53.170;6.980;2022-10-18T16:23:20;16.00;99.90
56184;DHT22;42086;53.170;6.980;2022-10-18T16:25:46;15.80;99.90
56184;DHT22;42086;53.170;6.980;2022-10-18T16:28:20;15.70;99.90
56184;DHT22;42086;53.170;6.980;2022-10-18T16:31:15;15.60;99.90
56184;DHT22;42086;53.170;6.980;2022-10-18T16:33:42;15.40;99.90
56184;DHT22;42086;53.170;6.980;2022-10-18T16:36:14;15.30;99.90
56184;DHT22;42086;53.170;6.980;2022-10-18T16:38:41;15.20;99.90
56184;DHT22;42086;53.170;6.980;2022-10-18T16:41:08;15.10;99.90
56184;DHT22;42086;53.170;6.980;2022-10-18T16:43:34;15.00;99.90
56184;DHT22;42086;53.170;6.980;2022-10-18T16:46:01;14.90;99.90
56184;DHT22;42086;53.170;6.980;2022-10-18T16:48:27;14.90;99.90
56184;DHT22;42086;53.170;6.980;2022-10-18T16:50:55;14.90;99.90
56184;DHT22;42086;53.170;6.980;2022-10-18T16:53:22;14.90;99.90
56184;DHT22;42086;53.170;6.980;2022-10-18T16:55:55;14.80;99.90
56184;DHT22;42086;53.170;6.980;2022-10-18T16:58:21;14.80;99.90
56184;DHT22;42086;53.170;6.980;2022-10-18T17:00:48;14.80;99.90
56184;DHT22;42086;53.170;6.980;2022-10-18T17:03:14;14.80;99.90
56184;DHT22;42086;53.170;6.980;2022-10-18T17:05:41;14.70;99.90
56184;DHT22;42086;53.170;6.980;2022-10-18T17:08:07;14.70;99.90
56184;DHT22;42086;53.170;6.980;2022-10-18T17:10:38;14.70;99.90
56184;DHT22;42086;53.170;6.980;2022-10-18T17:13:03;14.60;99.90
56184;DHT22;42086;53.170;6.980;2022-10-18T17:15:29;14.60;99.90
56184;DHT22;42086;53.170;6.980;2022-10-18T17:17:55;14.60;99.90
56184;DHT22;42086;53.170;6.980;2022-10-18T17:20:23;14.50;99.90
56184;DHT22;42086;53.170;6.980;2022-10-18T17:22:49;14.50;99.90
56184;DHT22;42086;53.170;6.980;2022-10-18T17:25:16;14.50;99.90
56184;DHT22;42086;53.170;6.980;2022-10-18T17:27:42;14.50;99.90
56184;DHT22;42086;53.170;6.980;2022-10-18T17:30:10;14.40;99.90
56184;DHT22;42086;53.170;6.980;2022-10-18T17:32:36;14.40;99.90
56184;DHT22;42086;53.170;6.980;2022-10-18T17:35:02;14.40;99.90
56184;DHT22;42086;53.170;6.980;2022-10-18T17:37:28;14.40;99.90
56184;DHT22;42086;53.170;6.980;2022-10-18T17:39:54;14.40;99.90
56184;DHT22;42086;53.170;6.980;2022-10-18T17:42:20;14.40;99.90
56184;DHT22;42086;53.170;6.980;2022-10-18T17:44:46;14.30;99.90
56184;DHT22;42086;53.170;6.980;2022-10-18T17:47:12;14.20;99.90
56184;DHT22;42086;53.170;6.980;2022-10-18T17:49:38;14.20;99.90
56184;DHT22;42086;53.170;6.980;2022-10-18T17:52:04;14.10;99.90
56184;DHT22;42086;53.170;6.980;2022-10-18T17:54:30;14.10;99.90
56184;DHT22;42086;53.170;6.980;2022-10-18T17:56:56;14.10;99.90
56184;DHT22;42086;53.170;6.980;2022-10-18T17:59:21;14.10;99.90
56184;DHT22;42086;53.170;6.980;2022-10-18T18:01:47;14.10;99.90
56184;DHT22;42086;53.170;6.980;2022-10-18T18:04:13;14.10;99.90
56184;DHT22;42086;53.170;6.980;2022-10-18T18:06:41;14.10;99.90
56184;DHT22;42086;53.170;6.980;2022-10-18T18:09:12;14.10;99.90
56184;DHT22;42086;53.170;6.980;2022-10-18T18:11:40;14.10;99.90
56184;DHT22;42086;53.170;6.980;2022-10-18T18:14:06;14.00;99.90
56184;DHT22;42086;53.170;6.980;2022-10-18T18:16:38;14.00;99.90
56184;DHT22;42086;53.170;6.980;2022-10-18T18:19:05;14.00;99.90
56184;DHT22;42086;53.170;6.980;2022-10-18T18:21:32;14.00;99.90
56184;DHT22;42086;53.170;6.980;2022-10-18T18:23:58;14.00;99.90